createdAt,value
2022-10-29T00:01:08.622Z,100171.38
2022-10-29T00:03:36.236Z,100168.13
2022-10-29T00:06:05.410Z,100155.13
2022-10-29T00:08:34.011Z,100162.16
2022-10-29T00:11:12.752Z,100169.66
2022-10-29T00:13:39.422Z,100152.78
2022-10-29T00:16:25.617Z,100163.31
2022-10-29T00:18:52.399Z,100167.81
2022-10-29T00:21:21.129Z,100166.16
2022-10-29T00:23:48.339Z,100150.75
2022-10-29T00:26:15.435Z,100159.66
2022-10-29T00:28:42.276Z,100156.34
2022-10-29T00:31:14.323Z,100143.75
2022-10-29T00:33:41.062Z,100162.09
2022-10-29T00:36:13.869Z,100160.34
2022-10-29T00:38:40.785Z,100147.22
2022-10-29T00:41:10.210Z,100149.84
2022-10-29T00:43:38.166Z,100150.09
2022-10-29T00:46:09.780Z,100150.25
2022-10-29T00:48:40.860Z,100153.94
2022-10-29T00:51:09.318Z,100154.88
2022-10-29T00:53:39.503Z,100154.97
2022-10-29T00:56:06.459Z,100150.13
2022-10-29T00:58:33.176Z,100151.16
2022-10-29T01:00:59.848Z,100153.78
2022-10-29T01:03:26.509Z,100147.03
2022-10-29T01:05:53.508Z,100161.72
2022-10-29T01:08:20.806Z,100176.31
2022-10-29T01:10:59.757Z,100171.06
2022-10-29T01:13:26.403Z,100186.19
2022-10-29T01:15:59.213Z,100182.03
2022-10-29T01:19:19.374Z,100189.16
2022-10-29T01:22:01.129Z,100188.94
2022-10-29T01:24:33.665Z,100193.69
2022-10-29T01:27:24.503Z,100186.03
2022-10-29T01:30:11.592Z,100191.00
2022-10-29T01:32:53.567Z,100199.00
2022-10-29T01:35:24.347Z,100193.69
2022-10-29T01:38:05.932Z,100193.09
2022-10-29T01:40:34.469Z,100189.78
2022-10-29T01:43:21.275Z,100197.00
2022-10-29T01:45:56.937Z,100188.53
2022-10-29T01:48:30.550Z,100183.16
2022-10-29T01:51:03.944Z,100184.56
2022-10-29T01:53:31.640Z,100181.19
2022-10-29T01:55:58.489Z,100176.00
2022-10-29T01:58:25.797Z,100149.59
2022-10-29T02:01:00.156Z,100162.50
2022-10-29T02:03:38.865Z,100174.03
2022-10-29T02:06:23.911Z,100165.22
2022-10-29T02:09:29.328Z,100171.91
2022-10-29T02:12:07.887Z,100159.25
2022-10-29T02:14:54.693Z,100162.59
2022-10-29T02:17:21.367Z,100166.09
2022-10-29T02:19:48.075Z,100151.47
2022-10-29T02:22:14.711Z,100157.66
2022-10-29T02:24:41.324Z,100154.88
2022-10-29T02:27:08.285Z,100157.66
2022-10-29T02:29:34.998Z,100158.03
2022-10-29T02:32:01.564Z,100158.09
2022-10-29T02:34:28.154Z,100168.50
2022-10-29T02:36:54.744Z,100153.31
2022-10-29T02:39:21.361Z,100163.72
2022-10-29T02:41:47.983Z,100160.72
2022-10-29T02:44:14.562Z,100149.56
2022-10-29T02:46:42.002Z,100144.84
2022-10-29T02:49:08.660Z,100140.09
2022-10-29T02:51:35.257Z,100138.75
2022-10-29T02:54:01.960Z,100143.47
2022-10-29T02:56:28.555Z,100135.03
2022-10-29T02:58:55.593Z,100144.56
2022-10-29T03:01:22.288Z,100119.56
2022-10-29T03:03:50.988Z,100144.38
2022-10-29T03:06:19.326Z,100133.84
2022-10-29T03:08:46.753Z,100126.72
2022-10-29T03:11:13.598Z,100108.94
2022-10-29T03:13:40.382Z,100110.09
2022-10-29T03:16:07.083Z,100104.25
2022-10-29T03:18:33.794Z,100113.53
2022-10-29T03:21:00.395Z,100114.28
2022-10-29T03:23:27.080Z,100109.91
2022-10-29T03:25:56.063Z,100098.94
2022-10-29T03:28:24.310Z,100098.22
2022-10-29T03:30:51.013Z,100092.69
2022-10-29T03:33:17.660Z,100092.88
2022-10-29T03:35:44.273Z,100106.28
2022-10-29T03:38:10.950Z,100111.50
2022-10-29T03:40:37.572Z,100089.72
2022-10-29T03:43:04.287Z,100093.22
2022-10-29T03:45:30.952Z,100100.47
2022-10-29T03:47:58.027Z,100101.91
2022-10-29T03:50:24.944Z,100085.59
2022-10-29T03:52:51.618Z,100090.47
2022-10-29T03:55:18.234Z,100081.78
2022-10-29T03:57:44.828Z,100077.72
2022-10-29T04:00:11.948Z,100066.66
2022-10-29T04:02:38.675Z,100081.38
2022-10-29T04:05:05.714Z,100068.66
2022-10-29T04:07:32.332Z,100074.91
2022-10-29T04:09:58.944Z,100078.31
2022-10-29T04:12:25.533Z,100069.84
2022-10-29T04:17:23.671Z,100081.69
2022-10-29T04:19:50.443Z,100062.84
2022-10-29T04:24:12.230Z,100058.34
2022-10-29T04:30:37.144Z,100063.38
2022-10-29T04:33:03.770Z,100069.53
2022-10-29T04:35:30.372Z,100066.00
2022-10-29T04:37:57.447Z,100064.22
2022-10-29T04:40:24.729Z,100058.19
2022-10-29T04:42:51.568Z,100042.75
2022-10-29T04:45:18.802Z,100042.13
2022-10-29T04:47:45.484Z,100036.53
2022-10-29T04:50:12.140Z,100044.78
2022-10-29T04:52:38.853Z,100052.34
2022-10-29T04:55:05.748Z,100044.97
2022-10-29T04:57:32.398Z,100057.75
2022-10-29T04:59:59.019Z,100043.53
2022-10-29T05:02:25.612Z,100060.44
2022-10-29T05:04:52.217Z,100057.78
2022-10-29T05:07:18.852Z,100042.94
2022-10-29T05:09:45.531Z,100042.66
2022-10-29T05:12:12.155Z,100030.19
2022-10-29T05:14:38.748Z,100033.81
2022-10-29T05:19:32.315Z,100036.06
2022-10-29T05:21:58.904Z,100028.41
2022-10-29T05:24:25.476Z,100024.13
2022-10-29T05:26:52.118Z,100025.97
2022-10-29T05:29:18.732Z,100036.19
2022-10-29T05:31:45.307Z,100026.59
2022-10-29T05:34:11.977Z,100034.28
2022-10-29T05:36:40.715Z,100033.53
2022-10-29T05:39:07.317Z,100027.34
2022-10-29T05:41:33.914Z,100031.69
2022-10-29T05:44:00.518Z,100018.50
2022-10-29T05:46:27.122Z,100032.66
2022-10-29T05:48:53.806Z,100017.69
2022-10-29T05:51:20.925Z,100009.81
2022-10-29T05:53:48.071Z,100005.88
2022-10-29T05:56:14.985Z,99986.38
2022-10-29T05:58:41.630Z,99970.78
2022-10-29T06:01:11.393Z,99962.59
2022-10-29T06:03:38.533Z,99966.69
2022-10-29T06:06:05.336Z,99951.81
2022-10-29T06:08:32.015Z,99930.72
2022-10-29T06:11:01.890Z,99929.56
2022-10-29T06:13:28.692Z,99914.16
2022-10-29T06:15:58.643Z,99927.56
2022-10-29T06:18:28.772Z,99923.81
2022-10-29T06:20:58.227Z,99910.38
2022-10-29T06:23:25.037Z,99913.34
2022-10-29T06:25:51.880Z,99879.38
2022-10-29T06:28:19.277Z,99876.13
2022-10-29T06:30:48.507Z,99877.78
2022-10-29T06:33:16.026Z,99864.09
2022-10-29T06:35:42.870Z,99860.75
2022-10-29T06:38:12.328Z,99858.59
2022-10-29T06:40:40.289Z,99837.53
2022-10-29T06:43:10.150Z,99841.63
2022-10-29T06:45:37.063Z,99824.13
2022-10-29T06:48:08.014Z,99813.66
2022-10-29T06:50:34.659Z,99815.69
2022-10-29T06:53:06.260Z,99816.47
2022-10-29T06:55:33.859Z,99820.16
2022-10-29T06:58:05.856Z,99823.50
2022-10-29T07:00:33.721Z,99818.09
2022-10-29T07:03:00.996Z,99806.91
2022-10-29T07:05:27.889Z,99787.84
2022-10-29T07:07:58.684Z,99792.97
2022-10-29T07:10:27.608Z,99795.19
2022-10-29T07:12:54.399Z,99807.75
2022-10-29T07:15:24.252Z,99811.09
2022-10-29T07:18:00.791Z,99822.06
2022-10-29T07:20:29.641Z,99820.66
2022-10-29T07:22:57.758Z,99811.75
2022-10-29T07:25:25.025Z,99830.31
2022-10-29T07:27:51.968Z,99836.97
2022-10-29T07:30:18.706Z,99824.56
2022-10-29T07:32:45.436Z,99819.25
2022-10-29T07:35:12.040Z,99823.19
2022-10-29T07:37:38.658Z,99808.34
2022-10-29T07:40:06.057Z,99813.94
2022-10-29T07:42:32.702Z,99822.53
2022-10-29T07:44:59.332Z,99817.94
2022-10-29T07:47:25.969Z,99825.00
2022-10-29T07:49:52.663Z,99830.19
2022-10-29T07:52:19.300Z,99820.00
2022-10-29T07:54:45.989Z,99802.75
2022-10-29T07:57:12.578Z,99797.69
2022-10-29T07:59:39.240Z,99811.88
2022-10-29T08:02:06.086Z,99817.66
2022-10-29T08:04:32.743Z,99822.66
2022-10-29T08:06:59.328Z,99782.44
2022-10-29T08:09:25.957Z,99801.72
2022-10-29T08:11:52.630Z,99796.03
2022-10-29T08:14:22.622Z,99792.13
2022-10-29T08:16:51.707Z,99789.00
2022-10-29T08:19:18.351Z,99795.78
2022-10-29T08:21:45.074Z,99795.28
2022-10-29T08:24:11.854Z,99799.50
2022-10-29T08:26:38.420Z,99804.13
2022-10-29T08:29:05.242Z,99797.16
2022-10-29T08:31:31.922Z,99796.19
2022-10-29T08:33:58.567Z,99805.44
2022-10-29T08:36:25.177Z,99793.97
2022-10-29T08:38:51.761Z,99788.78
2022-10-29T08:41:21.374Z,99787.22
2022-10-29T08:44:06.026Z,99770.19
2022-10-29T08:47:27.194Z,99761.13
2022-10-29T08:50:11.199Z,99766.22
2022-10-29T08:52:48.357Z,99759.81
2022-10-29T08:55:37.364Z,99767.38
2022-10-29T08:58:32.969Z,99765.22
2022-10-29T09:00:59.759Z,99747.56
2022-10-29T09:03:29.855Z,99766.41
2022-10-29T09:06:05.123Z,99764.75
2022-10-29T09:08:40.716Z,99767.19
2022-10-29T09:11:31.761Z,99760.31
2022-10-29T09:14:25.260Z,99755.59
2022-10-29T09:17:00.942Z,99760.50
2022-10-29T09:19:53.955Z,99743.91
2022-10-29T09:22:40.811Z,99742.47
2022-10-29T09:25:18.220Z,99728.81
2022-10-29T09:27:50.874Z,99738.59
2022-10-29T09:30:19.223Z,99740.75
2022-10-29T09:33:06.222Z,99742.31
2022-10-29T09:35:53.977Z,99744.06
2022-10-29T09:38:23.983Z,99724.03
2022-10-29T09:40:50.760Z,99707.06
2022-10-29T09:43:48.832Z,99716.44
2022-10-29T09:46:26.176Z,99700.09
2022-10-29T09:49:10.568Z,99704.38
2022-10-29T09:51:39.876Z,99714.09
2022-10-29T09:54:06.674Z,99700.66
2022-10-29T09:56:33.420Z,99701.31
2022-10-29T09:59:31.052Z,99685.56
2022-10-29T10:01:58.894Z,99673.81
2022-10-29T10:04:37.853Z,99674.00
2022-10-29T10:07:08.788Z,99676.50
2022-10-29T10:09:56.153Z,99684.06
2022-10-29T10:12:27.053Z,99671.34
2022-10-29T10:15:16.956Z,99654.22
2022-10-29T10:18:05.042Z,99666.81
2022-10-29T10:20:41.324Z,99663.97
2022-10-29T10:23:21.681Z,99645.44
2022-10-29T10:25:49.009Z,99643.25
2022-10-29T10:28:20.355Z,99649.56
2022-10-29T10:31:05.595Z,99616.56
2022-10-29T10:33:34.584Z,99578.28
2022-10-29T10:36:08.893Z,99569.84
2022-10-29T10:38:50.440Z,99596.38
2022-10-29T10:41:28.088Z,99610.84
2022-10-29T10:44:00.379Z,99606.31
2022-10-29T10:46:31.998Z,99617.41
2022-10-29T10:49:12.067Z,99604.72
2022-10-29T10:51:40.454Z,99598.38
2022-10-29T10:54:38.571Z,99594.34
2022-10-29T10:57:11.073Z,99578.69
2022-10-29T10:59:43.882Z,99579.97
2022-10-29T11:02:20.054Z,99579.56
2022-10-29T11:04:53.354Z,99569.72
2022-10-29T11:07:20.937Z,99576.72
2022-10-29T11:09:50.432Z,99561.94
2022-10-29T11:12:30.708Z,99566.59
2022-10-29T11:15:04.510Z,99581.59
2022-10-29T11:17:31.808Z,99578.53
2022-10-29T11:20:26.371Z,99579.25
2022-10-29T11:23:26.247Z,99568.94
2022-10-29T11:26:14.654Z,99567.75
2022-10-29T11:29:04.654Z,99558.13
2022-10-29T11:32:12.755Z,99540.69
2022-10-29T11:34:54.871Z,99493.94
2022-10-29T11:37:23.728Z,99497.88
2022-10-29T11:39:57.985Z,99513.63
2022-10-29T11:42:25.559Z,99522.50
2022-10-29T11:44:52.512Z,99526.75
2022-10-29T11:47:57.643Z,99522.81
2022-10-29T11:50:39.816Z,99512.88
2022-10-29T11:53:32.769Z,99511.38
2022-10-29T11:56:18.555Z,99501.63
2022-10-29T11:59:02.248Z,99491.91
2022-10-29T12:01:31.848Z,99506.91
2022-10-29T12:04:04.562Z,99501.94
2022-10-29T12:07:00.393Z,99496.44
2022-10-29T12:09:35.821Z,99495.81
2022-10-29T12:12:13.289Z,99494.97
2022-10-29T12:14:50.274Z,99473.56
2022-10-29T12:17:34.565Z,99486.47
2022-10-29T12:20:10.196Z,99448.78
2022-10-29T12:23:08.003Z,99470.28
2022-10-29T12:25:58.320Z,99461.94
2022-10-29T12:28:28.488Z,99471.69
2022-10-29T12:30:58.038Z,99477.59
2022-10-29T12:33:28.124Z,99448.50
2022-10-29T12:36:04.063Z,99466.16
2022-10-29T12:38:38.050Z,99458.78
2022-10-29T12:41:17.854Z,99429.28
2022-10-29T12:43:44.682Z,99459.06
2022-10-29T12:46:39.981Z,99445.34
2022-10-29T12:49:42.437Z,99441.72
2022-10-29T12:52:18.757Z,99437.19
2022-10-29T12:54:46.415Z,99441.38
2022-10-29T12:57:12.958Z,99441.59
2022-10-29T12:59:40.913Z,99442.38
2022-10-29T13:02:36.139Z,99437.69
2022-10-29T13:05:09.965Z,99435.03
2022-10-29T13:07:45.695Z,99419.28
2022-10-29T13:10:29.552Z,99419.63
2022-10-29T13:12:59.211Z,99418.66
2022-10-29T13:15:47.083Z,99407.16
2022-10-29T13:18:27.229Z,99398.78
2022-10-29T13:20:54.974Z,99378.56
2022-10-29T13:23:24.816Z,99393.63
2022-10-29T13:25:55.398Z,99387.50
2022-10-29T13:28:21.952Z,99388.84
2022-10-29T13:30:53.840Z,99368.34
2022-10-29T13:33:20.419Z,99381.72
2022-10-29T13:35:57.572Z,99368.47
2022-10-29T13:38:47.053Z,99371.09
2022-10-29T13:41:39.909Z,99362.03
2022-10-29T13:44:24.883Z,99362.38
2022-10-29T13:47:03.782Z,99363.59
2022-10-29T13:49:32.230Z,99364.84
2022-10-29T13:52:25.297Z,99356.84
2022-10-29T13:54:53.248Z,99363.56
2022-10-29T13:57:25.714Z,99357.28
2022-10-29T14:00:00.721Z,99285.09
2022-10-29T14:02:39.242Z,99332.84
2022-10-29T14:05:09.442Z,99346.97
2022-10-29T14:07:45.603Z,99343.06
2022-10-29T14:10:20.665Z,99333.56
2022-10-29T14:12:47.423Z,99333.16
2022-10-29T14:15:15.082Z,99325.88
2022-10-29T14:17:42.115Z,99326.09
2022-10-29T14:20:28.643Z,99308.06
2022-10-29T14:22:55.702Z,99325.69
2022-10-29T14:25:25.545Z,99330.84
2022-10-29T14:28:16.261Z,99323.28
2022-10-29T14:30:43.836Z,99308.81
2022-10-29T14:33:18.335Z,99307.22
2022-10-29T14:35:45.606Z,99319.63
2022-10-29T14:38:13.530Z,99326.16
2022-10-29T14:40:40.368Z,99311.91
2022-10-29T14:43:39.089Z,99288.56
2022-10-29T14:46:20.038Z,99309.88
2022-10-29T14:48:52.984Z,99311.94
2022-10-29T14:51:22.058Z,99305.72
2022-10-29T14:53:59.566Z,99317.00
2022-10-29T14:56:38.492Z,99304.44
2022-10-29T14:59:13.803Z,99308.06
2022-10-29T15:01:48.823Z,99308.41
2022-10-29T15:04:19.144Z,99312.88
2022-10-29T15:06:45.842Z,99306.72
2022-10-29T15:09:21.916Z,99299.25
2022-10-29T15:12:17.255Z,99305.78
2022-10-29T15:14:48.770Z,99310.31
2022-10-29T15:17:34.432Z,99301.66
2022-10-29T15:20:05.177Z,99299.88
2022-10-29T15:22:32.761Z,99303.66
2022-10-29T15:24:59.979Z,99283.97
2022-10-29T15:27:26.860Z,99289.22
2022-10-29T15:29:54.032Z,99272.22
2022-10-29T15:32:20.675Z,99279.56
2022-10-29T15:34:50.305Z,99263.50
2022-10-29T15:37:19.904Z,99285.44
2022-10-29T15:39:56.614Z,99282.28
2022-10-29T15:42:25.765Z,99276.19
2022-10-29T15:45:07.602Z,99271.56
2022-10-29T15:47:48.519Z,99269.09
2022-10-29T15:50:21.077Z,99258.34
2022-10-29T15:52:54.897Z,99261.72
2022-10-29T15:55:38.587Z,99251.09
2022-10-29T15:58:09.535Z,99255.44
2022-10-29T16:00:36.169Z,99255.25
2022-10-29T16:03:12.248Z,99238.22
2022-10-29T16:05:39.064Z,99238.75
2022-10-29T16:08:05.884Z,99232.69
2022-10-29T16:10:33.175Z,99217.94
2022-10-29T16:13:00.200Z,99229.84
2022-10-29T16:17:59.006Z,99193.09
2022-10-29T16:20:25.788Z,99203.09
2022-10-29T16:22:53.061Z,99179.47
2022-10-29T16:25:28.389Z,99213.69
2022-10-29T16:27:55.752Z,99227.28
2022-10-29T16:30:23.572Z,99220.47
2022-10-29T16:32:51.014Z,99219.41
2022-10-29T16:35:22.255Z,99233.91
2022-10-29T16:37:49.272Z,99222.00
2022-10-29T16:40:16.591Z,99224.81
2022-10-29T16:42:43.503Z,99224.09
2022-10-29T16:45:16.799Z,99214.00
2022-10-29T16:47:43.550Z,99220.34
2022-10-29T16:50:16.150Z,99225.88
2022-10-29T16:52:44.450Z,99220.66
2022-10-29T16:55:11.900Z,99217.97
2022-10-29T16:57:38.841Z,99222.38
2022-10-29T17:00:07.183Z,99228.31
2022-10-29T17:02:34.009Z,99236.78
2022-10-29T17:05:00.652Z,99193.03
2022-10-29T17:07:27.274Z,99219.47
2022-10-29T17:09:53.852Z,99211.31
2022-10-29T17:12:20.781Z,99192.75
2022-10-29T17:14:47.454Z,99203.34
2022-10-29T17:17:14.091Z,99200.81
2022-10-29T17:19:40.696Z,99192.63
2022-10-29T17:22:10.633Z,99180.66
2022-10-29T17:24:37.481Z,99181.09
2022-10-29T17:27:04.310Z,99181.09
2022-10-29T17:29:36.142Z,99192.38
2022-10-29T17:34:30.540Z,99207.81
2022-10-29T17:36:57.268Z,99187.97
2022-10-29T17:39:23.918Z,99207.75
2022-10-29T17:41:51.081Z,99211.06
2022-10-29T17:44:18.141Z,99205.47
2022-10-29T17:46:45.051Z,99208.81
2022-10-29T17:49:11.834Z,99215.84
2022-10-29T17:51:38.464Z,99219.81
2022-10-29T17:54:05.316Z,99216.91
2022-10-29T17:56:32.434Z,99184.34
2022-10-29T17:58:59.069Z,99193.09
2022-10-29T18:01:25.846Z,99203.38
2022-10-29T18:03:52.526Z,99203.94
2022-10-29T18:06:19.256Z,99203.81
2022-10-29T18:08:45.891Z,99213.09
2022-10-29T18:11:20.562Z,99195.94
2022-10-29T18:13:48.118Z,99201.28
2022-10-29T18:16:18.547Z,99199.16
2022-10-29T18:19:00.795Z,99201.41
2022-10-29T18:21:29.304Z,99211.91
2022-10-29T18:23:56.010Z,99214.53
2022-10-29T18:26:28.286Z,99210.56
2022-10-29T18:28:55.792Z,99199.03
2022-10-29T18:31:24.600Z,99210.00
2022-10-29T18:33:51.335Z,99199.66
2022-10-29T18:36:18.012Z,99210.84
2022-10-29T18:38:50.015Z,99197.25
2022-10-29T18:41:16.739Z,99191.53
2022-10-29T18:43:43.361Z,99184.81
2022-10-29T18:46:10.353Z,99183.00
2022-10-29T18:48:38.689Z,99195.56
2022-10-29T18:51:14.660Z,99173.25
2022-10-29T18:53:41.317Z,99187.78
2022-10-29T18:56:13.360Z,99191.81
2022-10-29T18:58:40.321Z,99190.22
2022-10-29T19:01:17.849Z,99197.22
2022-10-29T19:03:49.641Z,99199.09
2022-10-29T19:06:20.269Z,99204.56
2022-10-29T19:08:47.239Z,99185.50
2022-10-29T19:11:16.284Z,99165.38
2022-10-29T19:13:42.972Z,99175.16
2022-10-29T19:16:13.332Z,99198.91
2022-10-29T19:18:40.745Z,99189.41
2022-10-29T19:21:09.577Z,99198.56
2022-10-29T19:23:36.656Z,99205.44
2022-10-29T19:26:07.182Z,99199.41
2022-10-29T19:28:34.085Z,99194.88
2022-10-29T19:31:05.502Z,99182.84
2022-10-29T19:33:32.213Z,99174.94
2022-10-29T19:35:59.521Z,99184.66
2022-10-29T19:38:26.280Z,99193.25
2022-10-29T19:40:53.223Z,99203.28
2022-10-29T19:43:19.892Z,99178.41
2022-10-29T19:45:46.485Z,99201.06
2022-10-29T19:48:13.119Z,99197.69
2022-10-29T19:50:39.755Z,99175.97
2022-10-29T19:53:06.441Z,99171.72
2022-10-29T19:55:36.180Z,99177.09
2022-10-29T19:58:02.752Z,99176.88
2022-10-29T20:00:29.725Z,99147.16
2022-10-29T20:02:56.616Z,99178.88
2022-10-29T20:05:23.488Z,99167.34
2022-10-29T20:07:50.224Z,99146.00
2022-10-29T20:10:17.802Z,99158.66
2022-10-29T20:12:44.939Z,99172.78
2022-10-29T20:15:12.176Z,99146.31
2022-10-29T20:17:38.817Z,99169.53
2022-10-29T20:20:06.635Z,99148.03
2022-10-29T20:22:33.279Z,99157.75
2022-10-29T20:24:59.921Z,99140.97
2022-10-29T20:27:26.618Z,99162.25
2022-10-29T20:29:53.220Z,99165.13
2022-10-29T20:32:19.930Z,99155.88
2022-10-29T20:34:46.541Z,99151.34
2022-10-29T20:37:13.133Z,99155.34
2022-10-29T20:39:39.739Z,99149.00
2022-10-29T20:42:06.378Z,99154.84
2022-10-29T20:44:32.959Z,99153.66
2022-10-29T20:46:59.572Z,99146.69
2022-10-29T20:49:26.327Z,99160.97
2022-10-29T20:51:52.995Z,99167.28
2022-10-29T20:54:19.696Z,99155.78
2022-10-29T20:56:46.365Z,99166.44
2022-10-29T20:59:12.959Z,99146.97
2022-10-29T21:01:39.738Z,99142.84
2022-10-29T21:04:06.495Z,99159.91
2022-10-29T21:06:33.083Z,99141.91
2022-10-29T21:08:59.831Z,99135.34
2022-10-29T21:11:26.427Z,99156.41
2022-10-29T21:13:53.088Z,99154.84
2022-10-29T21:16:24.482Z,99142.63
2022-10-29T21:18:52.704Z,99152.41
2022-10-29T21:21:19.610Z,99163.19
2022-10-29T21:23:46.319Z,99160.13
2022-10-29T21:26:15.764Z,99144.63
2022-10-29T21:28:42.882Z,99154.63
2022-10-29T21:31:09.689Z,99167.78
2022-10-29T21:33:36.365Z,99148.66
2022-10-29T21:36:03.301Z,99159.34
2022-10-29T21:38:30.494Z,99151.19
2022-10-29T21:40:57.137Z,99142.66
2022-10-29T21:43:23.828Z,99141.06
2022-10-29T21:45:51.200Z,99143.91
2022-10-29T21:48:18.707Z,99129.47
2022-10-29T21:50:45.480Z,99150.34
2022-10-29T21:53:12.100Z,99158.03
2022-10-29T21:55:38.867Z,99143.91
2022-10-29T21:58:05.562Z,99154.97
2022-10-29T22:00:32.517Z,99153.38
2022-10-29T22:03:04.198Z,99153.59
2022-10-29T22:05:31.756Z,99153.78
2022-10-29T22:07:58.873Z,99152.31
2022-10-29T22:10:25.613Z,99153.66
2022-10-29T22:12:52.267Z,99144.06
2022-10-29T22:15:18.917Z,99130.41
2022-10-29T22:17:45.560Z,99158.19
2022-10-29T22:20:12.548Z,99151.22
2022-10-29T22:22:39.171Z,99167.00
2022-10-29T22:25:07.454Z,99153.72
2022-10-29T22:27:34.083Z,99154.34
2022-10-29T22:30:00.649Z,99147.16
2022-10-29T22:32:27.211Z,99156.53
2022-10-29T22:34:53.820Z,99136.63
2022-10-29T22:37:20.386Z,99133.91
2022-10-29T22:39:47.107Z,99143.47
2022-10-29T22:42:13.690Z,99146.09
2022-10-29T22:44:40.360Z,99153.84
2022-10-29T22:47:06.963Z,99162.47
2022-10-29T22:49:33.595Z,99148.88
2022-10-29T22:52:01.639Z,99146.34
2022-10-29T22:54:28.800Z,99149.41
2022-10-29T22:56:55.414Z,99148.00
2022-10-29T22:59:22.108Z,99148.81
2022-10-29T23:01:48.903Z,99173.06
2022-10-29T23:04:15.842Z,99170.31
2022-10-29T23:06:42.552Z,99165.19
2022-10-29T23:09:09.178Z,99157.78
2022-10-29T23:11:39.066Z,99150.72
2022-10-29T23:14:05.929Z,99161.88
2022-10-29T23:16:33.680Z,99149.97
2022-10-29T23:19:02.316Z,99164.41
2022-10-29T23:21:29.298Z,99156.41
2022-10-29T23:23:56.032Z,99156.91
2022-10-29T23:26:24.146Z,99142.81
2022-10-29T23:28:50.953Z,99128.59
2022-10-29T23:31:26.642Z,99142.91
2022-10-29T23:33:55.525Z,99150.53
2022-10-29T23:36:23.983Z,99155.97
2022-10-29T23:39:01.236Z,99139.84
2022-10-29T23:41:28.837Z,99138.91
2022-10-29T23:43:55.703Z,99132.69
2022-10-29T23:46:22.489Z,99124.69
2022-10-29T23:48:49.280Z,99130.78
2022-10-29T23:51:15.917Z,99125.94
2022-10-29T23:53:42.527Z,99122.56
2022-10-29T23:56:09.182Z,99138.31
2022-10-29T23:58:35.849Z,99137.56
